createdAt,value
2018-01-12T00:02:06.705Z,12.30
2018-01-12T00:04:34.971Z,9.40
2018-01-12T00:07:02.486Z,9.40
2018-01-12T00:09:30.380Z,7.53
2018-01-12T00:11:57.890Z,8.63
2018-01-12T00:14:25.782Z,8.50
2018-01-12T00:16:53.307Z,7.80
2018-01-12T00:19:20.829Z,7.73
2018-01-12T00:21:48.331Z,7.77
2018-01-12T00:24:15.848Z,7.10
2018-01-12T00:26:43.746Z,7.60
2018-01-12T00:29:11.655Z,6.97
2018-01-12T00:31:39.547Z,7.97
2018-01-12T00:34:07.080Z,7.87
2018-01-12T00:36:35.074Z,7.83
2018-01-12T00:39:02.599Z,9.27
2018-01-12T00:41:30.509Z,8.03
2018-01-12T00:43:58.031Z,8.10
2018-01-12T00:46:25.522Z,8.07
2018-01-12T00:48:53.449Z,7.50
2018-01-12T00:51:21.353Z,7.70
2018-01-12T00:53:48.856Z,8.20
2018-01-12T00:56:16.382Z,8.83
2018-01-12T00:58:44.287Z,8.10
2018-01-12T01:01:11.802Z,7.03
2018-01-12T01:03:39.298Z,8.90
2018-01-12T01:06:06.815Z,9.33
2018-01-12T01:08:34.737Z,7.40
2018-01-12T01:11:02.650Z,8.87
2018-01-12T01:13:30.153Z,7.57
2018-01-12T01:15:58.015Z,7.93
2018-01-12T01:18:25.508Z,8.60
2018-01-12T01:20:53.407Z,8.60
2018-01-12T01:23:21.319Z,8.13
2018-01-12T01:25:49.947Z,8.07
2018-01-12T01:28:17.863Z,7.10
2018-01-12T01:30:46.118Z,7.20
2018-01-12T01:33:13.638Z,7.07
2018-01-12T01:38:48.178Z,8.93
2018-01-12T01:41:16.070Z,7.70
2018-01-12T01:43:43.979Z,7.37
2018-01-12T01:46:11.465Z,7.13
2018-01-12T01:48:41.313Z,7.17
2018-01-12T01:51:08.810Z,7.73
2018-01-12T01:53:36.712Z,8.10
2018-01-12T01:56:04.622Z,8.37
2018-01-12T01:58:32.110Z,8.27
2018-01-12T02:01:00.038Z,8.40
2018-01-12T02:03:27.942Z,7.63
2018-01-12T02:05:55.869Z,7.27
2018-01-12T02:08:24.146Z,8.50
2018-01-12T02:10:52.070Z,7.70
2018-01-12T02:13:19.578Z,8.80
2018-01-12T02:15:47.489Z,6.60
2018-01-12T02:18:15.019Z,8.70
2018-01-12T02:20:42.912Z,8.70
2018-01-12T02:23:10.434Z,7.60
2018-01-12T02:25:38.336Z,7.67
2018-01-12T02:28:06.264Z,9.90
2018-01-12T02:30:34.582Z,8.60
2018-01-12T02:33:02.102Z,11.47
2018-01-12T02:35:30.016Z,9.40
2018-01-12T02:37:57.537Z,11.10
2018-01-12T02:40:25.617Z,8.67
2018-01-12T02:42:53.154Z,8.63
2018-01-12T02:45:20.659Z,10.50
2018-01-12T02:47:48.180Z,10.33
2018-01-12T02:50:16.083Z,8.93
2018-01-12T02:52:44.373Z,9.07
2018-01-12T02:55:11.876Z,8.93
2018-01-12T02:57:39.782Z,10.60
2018-01-12T03:00:07.302Z,9.10
2018-01-12T03:02:35.568Z,7.70
2018-01-12T03:05:03.477Z,8.73
2018-01-12T03:07:31.735Z,6.73
2018-01-12T03:09:59.255Z,8.67
2018-01-12T03:12:27.185Z,8.57
2018-01-12T03:14:54.887Z,8.83
2018-01-12T03:17:22.384Z,9.33
2018-01-12T03:19:50.306Z,9.10
2018-01-12T03:22:18.207Z,9.93
2018-01-12T03:24:45.739Z,9.30
2018-01-12T03:27:13.238Z,10.23
2018-01-12T03:29:41.505Z,11.53
2018-01-12T03:32:09.418Z,9.33
2018-01-12T03:34:37.705Z,11.67
2018-01-12T03:37:05.221Z,11.03
2018-01-12T03:39:32.726Z,10.10
2018-01-12T03:42:00.647Z,9.93
2018-01-12T03:44:28.166Z,10.03
2018-01-12T03:46:56.075Z,8.90
2018-01-12T03:49:24.816Z,9.53
2018-01-12T03:51:52.840Z,9.90
2018-01-12T03:54:20.726Z,9.30
2018-01-12T03:56:48.246Z,10.37
2018-01-12T03:59:16.132Z,9.87
2018-01-12T04:01:44.018Z,8.63
2018-01-12T04:04:11.541Z,8.40
2018-01-12T04:06:39.815Z,10.27
2018-01-12T04:09:07.339Z,9.67
2018-01-12T04:11:34.847Z,10.37
2018-01-12T04:14:02.766Z,7.73
2018-01-12T04:16:30.666Z,9.83
2018-01-12T04:18:58.188Z,8.87
2018-01-12T04:21:25.769Z,9.40
2018-01-12T04:23:53.688Z,8.50
2018-01-12T04:26:21.586Z,9.30
2018-01-12T04:28:49.488Z,7.30
2018-01-12T04:31:17.394Z,8.47
2018-01-12T04:33:45.292Z,8.20
2018-01-12T04:36:12.829Z,8.63
2018-01-12T04:38:40.322Z,9.03
2018-01-12T04:41:08.230Z,8.30
2018-01-12T04:43:35.731Z,7.17
2018-01-12T04:46:03.272Z,8.07
2018-01-12T04:48:31.570Z,7.93
2018-01-12T04:50:59.270Z,6.57
2018-01-12T04:53:26.774Z,6.10
2018-01-12T04:55:54.694Z,6.33
2018-01-12T04:58:22.603Z,6.37
2018-01-12T05:00:50.908Z,6.77
2018-01-12T05:03:18.420Z,6.13
2018-01-12T05:05:45.933Z,7.77
2018-01-12T05:08:13.848Z,6.50
2018-01-12T05:10:41.369Z,6.97
2018-01-12T05:13:10.036Z,7.20
2018-01-12T05:15:37.548Z,7.13
2018-01-12T05:18:05.063Z,8.13
2018-01-12T05:20:32.968Z,8.17
2018-01-12T05:23:00.896Z,6.83
2018-01-12T05:25:28.794Z,8.77
2018-01-12T05:27:56.708Z,7.07
2018-01-12T05:30:24.206Z,7.40
2018-01-12T05:32:51.718Z,7.67
2018-01-12T05:35:19.615Z,7.57
2018-01-12T05:37:47.546Z,8.60
2018-01-12T05:40:15.040Z,8.03
2018-01-12T05:42:42.543Z,6.77
2018-01-12T05:45:10.466Z,6.73
2018-01-12T05:47:37.966Z,7.43
2018-01-12T05:50:05.875Z,7.37
2018-01-12T05:52:33.383Z,7.07
2018-01-12T05:55:01.294Z,6.53
2018-01-12T05:57:28.795Z,7.70
2018-01-12T05:59:56.827Z,7.30
2018-01-12T06:02:36.464Z,8.07
2018-01-12T06:05:16.290Z,6.77
2018-01-12T06:07:43.798Z,6.60
2018-01-12T06:10:11.738Z,6.60
2018-01-12T06:12:39.634Z,8.17
2018-01-12T06:15:07.522Z,7.77
2018-01-12T06:17:37.226Z,7.37
2018-01-12T06:20:04.810Z,7.80
2018-01-12T06:22:32.854Z,6.83
2018-01-12T06:25:00.860Z,7.60
2018-01-12T06:27:28.784Z,5.33
2018-01-12T06:29:56.789Z,6.13
2018-01-12T06:32:24.306Z,6.90
2018-01-12T06:34:52.198Z,7.50
2018-01-12T06:37:20.120Z,7.40
2018-01-12T06:39:48.391Z,7.37
2018-01-12T06:42:17.044Z,8.00
2018-01-12T06:44:44.952Z,8.97
2018-01-12T06:47:13.262Z,6.53
2018-01-12T06:49:41.153Z,8.20
2018-01-12T06:52:08.654Z,7.53
2018-01-12T06:54:36.931Z,7.20
2018-01-12T06:57:04.823Z,6.97
2018-01-12T06:59:32.350Z,6.80
2018-01-12T07:02:00.250Z,7.43
2018-01-12T07:04:28.159Z,8.40
2018-01-12T07:06:55.650Z,7.07
2018-01-12T07:09:23.576Z,7.03
2018-01-12T07:11:51.077Z,7.33
2018-01-12T07:14:19.002Z,6.90
2018-01-12T07:16:46.502Z,5.23
2018-01-12T07:19:14.398Z,6.23
2018-01-12T07:21:53.774Z,6.70
2018-01-12T07:24:21.679Z,6.60
2018-01-12T07:26:49.601Z,6.17
2018-01-12T07:29:17.489Z,7.73
2018-01-12T07:31:45.873Z,7.13
2018-01-12T07:34:13.838Z,6.80
2018-01-12T07:36:41.346Z,5.53
2018-01-12T07:39:08.840Z,6.00
2018-01-12T07:41:36.750Z,6.93
2018-01-12T07:44:04.253Z,5.77
2018-01-12T07:46:31.774Z,5.97
2018-01-12T07:48:59.690Z,6.70
2018-01-12T07:51:27.191Z,6.47
2018-01-12T07:53:54.709Z,6.90
2018-01-12T07:56:22.608Z,6.73
2018-01-12T07:58:50.894Z,6.07
2018-01-12T08:01:35.663Z,6.03
2018-01-12T08:04:03.579Z,6.30
2018-01-12T08:06:31.079Z,6.87
2018-01-12T08:08:58.982Z,6.33
2018-01-12T08:11:26.478Z,6.47
2018-01-12T08:13:54.402Z,6.93
2018-01-12T08:16:22.671Z,6.57
2018-01-12T08:18:50.187Z,6.80
2018-01-12T08:21:17.694Z,6.73
2018-01-12T08:23:45.218Z,7.57
2018-01-12T08:26:12.714Z,7.07
2018-01-12T08:28:40.203Z,7.13
2018-01-12T08:31:07.758Z,7.80
2018-01-12T08:33:35.666Z,8.17
2018-01-12T08:36:03.950Z,7.10
2018-01-12T08:38:31.843Z,6.90
2018-01-12T08:41:00.883Z,6.50
2018-01-12T08:43:29.878Z,7.10
2018-01-12T08:45:57.779Z,7.00
2018-01-12T08:48:25.674Z,5.90
2018-01-12T08:50:53.582Z,7.33
2018-01-12T08:53:21.474Z,7.57
2018-01-12T08:55:49.382Z,7.03
2018-01-12T08:58:16.874Z,7.40
2018-01-12T09:00:44.362Z,7.13
2018-01-12T09:03:12.285Z,6.80
2018-01-12T09:05:40.552Z,6.67
2018-01-12T09:08:08.090Z,6.23
2018-01-12T09:10:35.978Z,7.13
2018-01-12T09:13:03.490Z,8.50
2018-01-12T09:15:31.385Z,6.77
2018-01-12T09:18:00.205Z,7.30
2018-01-12T09:20:33.910Z,6.70
2018-01-12T09:23:13.562Z,5.67
2018-01-12T09:25:42.208Z,6.93
2018-01-12T09:28:10.240Z,5.90
2018-01-12T09:30:37.734Z,6.27
2018-01-12T09:33:05.263Z,7.27
2018-01-12T09:35:32.754Z,6.03
2018-01-12T09:38:12.141Z,7.13
2018-01-12T09:40:47.841Z,6.77
2018-01-12T09:43:16.118Z,8.60
2018-01-12T09:45:43.617Z,6.87
2018-01-12T09:48:26.200Z,8.77
2018-01-12T09:50:53.697Z,7.43
2018-01-12T09:53:21.591Z,7.37
2018-01-12T09:55:49.155Z,7.43
2018-01-12T09:58:17.051Z,7.73
2018-01-12T10:01:00.516Z,6.83
2018-01-12T10:03:28.062Z,6.57
2018-01-12T10:05:55.977Z,7.63
2018-01-12T10:08:26.197Z,5.77
2018-01-12T10:10:54.138Z,6.90
2018-01-12T10:13:21.726Z,8.57
2018-01-12T10:15:50.006Z,6.80
2018-01-12T10:18:26.027Z,7.30
2018-01-12T10:20:54.306Z,6.07
2018-01-12T10:23:21.798Z,6.87
2018-01-12T10:25:50.455Z,6.83
2018-01-12T10:28:18.789Z,6.43
2018-01-12T10:30:59.018Z,6.77
2018-01-12T10:33:31.770Z,6.47
2018-01-12T10:35:59.705Z,7.33
2018-01-12T10:38:27.626Z,5.73
2018-01-12T10:41:16.174Z,6.77
2018-01-12T10:43:43.679Z,6.23
2018-01-12T10:46:36.362Z,6.40
2018-01-12T10:49:09.186Z,5.77
2018-01-12T10:51:37.494Z,7.80
2018-01-12T10:54:05.007Z,6.23
2018-01-12T10:56:32.506Z,8.07
2018-01-12T10:59:00.032Z,6.07
2018-01-12T11:01:28.674Z,6.23
2018-01-12T11:03:56.611Z,7.07
2018-01-12T11:06:25.618Z,6.73
2018-01-12T11:08:53.550Z,7.80
2018-01-12T11:11:21.441Z,6.10
2018-01-12T11:13:49.362Z,6.80
2018-01-12T11:16:16.874Z,6.27
2018-01-12T11:18:44.397Z,6.53
2018-01-12T11:21:11.886Z,6.57
2018-01-12T11:23:39.797Z,6.70
2018-01-12T11:26:07.305Z,6.53
2018-01-12T11:28:35.225Z,6.53
2018-01-12T11:31:02.739Z,5.50
2018-01-12T11:33:30.634Z,8.03
2018-01-12T11:35:58.554Z,6.53
2018-01-12T11:38:26.443Z,6.47
2018-01-12T11:40:53.966Z,7.03
2018-01-12T11:43:21.902Z,7.57
2018-01-12T11:45:49.810Z,6.33
2018-01-12T11:48:17.325Z,8.47
2018-01-12T11:50:45.846Z,6.63
2018-01-12T11:53:13.369Z,6.50
2018-01-12T11:55:41.482Z,6.73
2018-01-12T11:58:09.378Z,6.47
2018-01-12T12:00:37.274Z,7.07
2018-01-12T12:03:04.798Z,6.93
2018-01-12T12:05:32.700Z,8.13
2018-01-12T12:08:00.618Z,6.33
2018-01-12T12:10:29.262Z,5.87
2018-01-12T12:12:57.253Z,7.50
2018-01-12T12:15:25.158Z,7.27
2018-01-12T12:17:53.082Z,7.97
2018-01-12T12:20:20.586Z,7.17
2018-01-12T12:22:48.087Z,7.80
2018-01-12T12:25:16.007Z,7.30
2018-01-12T12:27:43.918Z,7.13
2018-01-12T12:30:11.831Z,9.27
2018-01-12T12:32:39.714Z,7.57
2018-01-12T12:35:07.682Z,7.17
2018-01-12T12:37:35.585Z,9.70
2018-01-12T12:40:03.198Z,8.53
2018-01-12T12:42:31.102Z,7.87
2018-01-12T12:44:59.018Z,7.47
2018-01-12T12:47:27.269Z,7.53
2018-01-12T12:49:54.766Z,7.13
2018-01-12T12:52:23.421Z,6.93
2018-01-12T12:54:50.931Z,6.43
2018-01-12T12:57:18.842Z,6.53
2018-01-12T12:59:46.742Z,7.93
2018-01-12T13:02:14.259Z,6.97
2018-01-12T13:04:42.155Z,7.47
2018-01-12T13:07:09.681Z,5.73
2018-01-12T13:09:37.191Z,5.93
2018-01-12T13:12:05.111Z,6.43
2018-01-12T13:14:33.010Z,6.67
2018-01-12T13:17:00.506Z,7.73
2018-01-12T13:19:28.030Z,5.80
2018-01-12T13:21:55.930Z,6.50
2018-01-12T13:24:23.842Z,5.87
2018-01-12T13:26:51.334Z,8.10
2018-01-12T13:29:18.849Z,5.00
2018-01-12T13:31:46.751Z,8.43
2018-01-12T13:34:14.272Z,7.07
2018-01-12T13:36:42.162Z,7.10
2018-01-12T13:39:10.417Z,6.17
2018-01-12T13:41:37.923Z,6.77
2018-01-12T13:44:05.810Z,6.70
2018-01-12T13:46:33.721Z,6.70
2018-01-12T13:49:01.210Z,6.90
2018-01-12T13:51:28.731Z,7.33
2018-01-12T13:53:56.388Z,9.10
2018-01-12T13:56:23.898Z,6.37
2018-01-12T13:58:51.796Z,8.30
2018-01-12T14:01:19.726Z,6.80
2018-01-12T14:03:47.239Z,6.83
2018-01-12T14:06:14.770Z,6.43
2018-01-12T14:08:42.270Z,6.27
2018-01-12T14:11:09.762Z,7.53
2018-01-12T14:13:37.685Z,7.60
2018-01-12T14:16:05.190Z,7.60
2018-01-12T14:18:33.112Z,8.57
2018-01-12T14:21:00.998Z,8.63
2018-01-12T14:23:28.514Z,8.77
2018-01-12T14:25:56.011Z,8.03
2018-01-12T14:28:24.290Z,8.27
2018-01-12T14:30:52.187Z,7.70
2018-01-12T14:33:19.714Z,6.97
2018-01-12T14:35:47.614Z,6.07
2018-01-12T14:38:15.138Z,6.63
2018-01-12T14:40:44.139Z,7.60
2018-01-12T14:43:11.652Z,7.73
2018-01-12T14:45:39.174Z,7.53
2018-01-12T14:48:07.076Z,6.87
2018-01-12T14:50:34.627Z,6.97
2018-01-12T14:53:02.890Z,7.03
2018-01-12T14:55:30.414Z,6.87
2018-01-12T14:57:58.315Z,6.97
2018-01-12T15:00:26.283Z,8.57
2018-01-12T15:02:54.174Z,6.63
2018-01-12T15:05:22.174Z,7.53
2018-01-12T15:07:49.680Z,6.10
2018-01-12T15:10:17.282Z,7.63
2018-01-12T15:12:45.176Z,8.23
2018-01-12T15:15:13.077Z,6.33
2018-01-12T15:17:41.005Z,7.70
2018-01-12T15:20:09.286Z,8.73
2018-01-12T15:22:37.222Z,7.30
2018-01-12T15:25:05.122Z,6.97
2018-01-12T15:27:32.655Z,9.10
2018-01-12T15:30:00.559Z,8.07
2018-01-12T15:32:28.494Z,8.40
2018-01-12T15:34:56.390Z,7.70
2018-01-12T15:37:24.309Z,8.27
2018-01-12T15:39:52.590Z,9.20
2018-01-12T15:42:20.526Z,7.87
2018-01-12T15:44:48.054Z,7.00
2018-01-12T15:47:15.957Z,7.10
2018-01-12T15:49:44.047Z,7.77
2018-01-12T15:52:11.559Z,7.10
2018-01-12T15:54:39.122Z,7.40
2018-01-12T15:57:07.039Z,6.77
2018-01-12T15:59:34.955Z,6.90
2018-01-12T16:02:03.216Z,8.07
2018-01-12T16:04:31.130Z,7.13
2018-01-12T16:06:59.026Z,6.70
2018-01-12T16:09:26.938Z,7.60
2018-01-12T16:11:55.574Z,7.73
2018-01-12T16:14:23.830Z,8.23
2018-01-12T16:16:52.482Z,7.70
2018-01-12T16:19:19.982Z,8.93
2018-01-12T16:21:47.896Z,8.97
2018-01-12T16:24:15.399Z,7.73
2018-01-12T16:26:42.930Z,9.17
2018-01-12T16:29:10.826Z,8.87
2018-01-12T16:31:38.734Z,9.27
2018-01-12T16:34:06.632Z,7.77
2018-01-12T16:36:34.141Z,8.73
2018-01-12T16:39:01.672Z,8.37
2018-01-12T16:41:29.603Z,10.63
2018-01-12T16:43:57.507Z,9.70
2018-01-12T16:46:25.785Z,9.67
2018-01-12T16:48:53.306Z,9.30
2018-01-12T16:51:21.248Z,10.83
2018-01-12T16:53:48.824Z,9.07
2018-01-12T16:56:16.714Z,8.83
2018-01-12T16:58:44.619Z,9.50
2018-01-12T17:01:12.132Z,7.73
2018-01-12T17:03:39.659Z,10.07
2018-01-12T17:06:07.550Z,9.93
2018-01-12T17:08:35.469Z,12.03
2018-01-12T17:11:03.755Z,9.07
2018-01-12T17:13:31.327Z,10.17
2018-01-12T17:15:59.254Z,11.03
2018-01-12T17:18:26.784Z,9.80
2018-01-12T17:20:54.667Z,9.90
2018-01-12T17:23:23.693Z,10.43
2018-01-12T17:25:51.587Z,10.40
2018-01-12T17:28:19.109Z,10.87
2018-01-12T17:30:46.606Z,10.27
2018-01-12T17:33:14.106Z,11.33
2018-01-12T17:35:42.026Z,9.60
2018-01-12T17:38:09.928Z,11.00
2018-01-12T17:40:37.455Z,10.50
2018-01-12T17:43:05.001Z,10.03
2018-01-12T17:45:32.894Z,10.93
2018-01-12T17:48:00.790Z,10.07
2018-01-12T17:50:28.703Z,11.27
2018-01-12T17:52:56.621Z,10.03
2018-01-12T17:55:24.150Z,9.63
2018-01-12T17:57:52.043Z,9.73
2018-01-12T18:00:19.946Z,10.27
2018-01-12T18:02:47.458Z,9.63
2018-01-12T18:05:15.732Z,10.90
2018-01-12T18:07:43.260Z,9.93
2018-01-12T18:10:11.146Z,9.53
2018-01-12T18:12:38.770Z,10.17
2018-01-12T18:15:06.267Z,10.37
